sensor_id;sensor_type;location;lat;lon;timestamp;temperature;humidity
15262;DHT22;7733;51.554;13.590;2023-02-01T00:00:21;5.30;99.90
15262;DHT22;7733;51.554;13.590;2023-02-01T00:02:46;5.30;99.90
15262;DHT22;7733;51.554;13.590;2023-02-01T00:05:12;5.30;99.90
15262;DHT22;7733;51.554;13.590;2023-02-01T00:07:38;5.40;99.90
15262;DHT22;7733;51.554;13.590;2023-02-01T00:10:05;5.30;99.90
15262;DHT22;7733;51.554;13.590;2023-02-01T00:12:32;5.30;99.90
15262;DHT22;7733;51.554;13.590;2023-02-01T00:14:58;5.30;99.90
15262;DHT22;7733;51.554;13.590;2023-02-01T00:17:24;5.30;99.90
15262;DHT22;7733;51.554;13.590;2023-02-01T00:19:50;5.30;99.90
15262;DHT22;7733;51.554;13.590;2023-02-01T00:22:15;5.30;99.90
15262;DHT22;7733;51.554;13.590;2023-02-01T00:24:41;5.30;99.90
15262;DHT22;7733;51.554;13.590;2023-02-01T00:27:07;5.30;99.90
15262;DHT22;7733;51.554;13.590;2023-02-01T00:29:32;5.30;99.90
15262;DHT22;7733;51.554;13.590;2023-02-01T00:31:58;5.30;99.90
15262;DHT22;7733;51.554;13.590;2023-02-01T00:34:24;5.30;99.90
15262;DHT22;7733;51.554;13.590;2023-02-01T00:36:50;5.30;99.90
15262;DHT22;7733;51.554;13.590;2023-02-01T00:39:16;5.30;99.90
15262;DHT22;7733;51.554;13.590;2023-02-01T00:41:42;5.30;99.90
15262;DHT22;7733;51.554;13.590;2023-02-01T00:44:08;5.30;99.90
15262;DHT22;7733;51.554;13.590;2023-02-01T00:46:33;5.30;99.90
15262;DHT22;7733;51.554;13.590;2023-02-01T00:48:59;5.30;99.90
15262;DHT22;7733;51.554;13.590;2023-02-01T00:51:28;5.30;99.90
15262;DHT22;7733;51.554;13.590;2023-02-01T00:53:55;5.30;99.90
15262;DHT22;7733;51.554;13.590;2023-02-01T00:56:22;5.30;99.90
15262;DHT22;7733;51.554;13.590;2023-02-01T00:58:48;5.30;99.90
15262;DHT22;7733;51.554;13.590;2023-02-01T01:01:19;5.20;99.90
15262;DHT22;7733;51.554;13.590;2023-02-01T01:03:53;5.20;99.90
15262;DHT22;7733;51.554;13.590;2023-02-01T01:06:23;5.10;99.90
15262;DHT22;7733;51.554;13.590;2023-02-01T01:08:53;5.10;99.90
15262;DHT22;7733;51.554;13.590;2023-02-01T01:11:22;5.10;99.90
15262;DHT22;7733;51.554;13.590;2023-02-01T01:13:51;5.00;99.90
15262;DHT22;7733;51.554;13.590;2023-02-01T01:16:19;5.00;99.90
15262;DHT22;7733;51.554;13.590;2023-02-01T01:18:46;5.00;99.90
15262;DHT22;7733;51.554;13.590;2023-02-01T01:21:14;4.90;99.90
15262;DHT22;7733;51.554;13.590;2023-02-01T01:23:41;4.90;99.90
15262;DHT22;7733;51.554;13.590;2023-02-01T01:26:15;4.90;99.90
15262;DHT22;7733;51.554;13.590;2023-02-01T01:28:46;4.90;99.90
15262;DHT22;7733;51.554;13.590;2023-02-01T01:31:14;4.90;99.90
15262;DHT22;7733;51.554;13.590;2023-02-01T01:33:41;4.90;99.90
15262;DHT22;7733;51.554;13.590;2023-02-01T01:36:10;5.00;99.90
15262;DHT22;7733;51.554;13.590;2023-02-01T01:38:39;4.90;99.90
15262;DHT22;7733;51.554;13.590;2023-02-01T01:41:05;4.90;99.90
15262;DHT22;7733;51.554;13.590;2023-02-01T01:43:50;4.90;99.90
15262;DHT22;7733;51.554;13.590;2023-02-01T01:46:38;5.00;99.90
15262;DHT22;7733;51.554;13.590;2023-02-01T01:49:19;5.00;99.90
15262;DHT22;7733;51.554;13.590;2023-02-01T01:51:53;4.90;99.90
15262;DHT22;7733;51.554;13.590;2023-02-01T01:54:29;5.00;99.90
15262;DHT22;7733;51.554;13.590;2023-02-01T01:56:59;5.00;99.90
15262;DHT22;7733;51.554;13.590;2023-02-01T01:59:31;5.00;99.90
15262;DHT22;7733;51.554;13.590;2023-02-01T02:02:01;5.00;99.90
15262;DHT22;7733;51.554;13.590;2023-02-01T02:04:28;5.00;99.90
15262;DHT22;7733;51.554;13.590;2023-02-01T02:07:08;5.00;99.90
15262;DHT22;7733;51.554;13.590;2023-02-01T02:09:37;5.00;99.90
15262;DHT22;7733;51.554;13.590;2023-02-01T02:12:03;5.10;99.90
15262;DHT22;7733;51.554;13.590;2023-02-01T02:14:30;5.00;99.90
15262;DHT22;7733;51.554;13.590;2023-02-01T02:17:22;5.00;99.90
15262;DHT22;7733;51.554;13.590;2023-02-01T02:20:12;5.00;99.90
15262;DHT22;7733;51.554;13.590;2023-02-01T02:26:05;4.90;99.90
15262;DHT22;7733;51.554;13.590;2023-02-01T02:37:23;4.90;99.90
15262;DHT22;7733;51.554;13.590;2023-02-01T02:40:14;4.80;99.90
15262;DHT22;7733;51.554;13.590;2023-02-01T02:43:09;4.80;99.90
15262;DHT22;7733;51.554;13.590;2023-02-01T02:46:04;4.80;99.90
15262;DHT22;7733;51.554;13.590;2023-02-01T02:49:58;4.80;99.90
15262;DHT22;7733;51.554;13.590;2023-02-01T02:52:33;4.80;99.90
15262;DHT22;7733;51.554;13.590;2023-02-01T02:55:24;4.80;99.90
15262;DHT22;7733;51.554;13.590;2023-02-01T02:57:52;4.80;99.90
15262;DHT22;7733;51.554;13.590;2023-02-01T03:00:39;4.80;99.90
15262;DHT22;7733;51.554;13.590;2023-02-01T03:03:24;4.80;99.90
15262;DHT22;7733;51.554;13.590;2023-02-01T03:06:14;4.80;99.90
15262;DHT22;7733;51.554;13.590;2023-02-01T03:08:43;4.90;99.90
15262;DHT22;7733;51.554;13.590;2023-02-01T03:11:13;4.90;99.90
15262;DHT22;7733;51.554;13.590;2023-02-01T03:19:31;4.90;99.90
15262;DHT22;7733;51.554;13.590;2023-02-01T03:22:06;4.90;99.90
15262;DHT22;7733;51.554;13.590;2023-02-01T03:24:39;4.90;99.90
15262;DHT22;7733;51.554;13.590;2023-02-01T03:27:21;4.90;99.90
15262;DHT22;7733;51.554;13.590;2023-02-01T03:30:25;4.90;99.90
15262;DHT22;7733;51.554;13.590;2023-02-01T03:33:00;4.90;99.90
15262;DHT22;7733;51.554;13.590;2023-02-01T03:35:30;4.90;99.90
15262;DHT22;7733;51.554;13.590;2023-02-01T03:40:41;4.90;99.90
15262;DHT22;7733;51.554;13.590;2023-02-01T03:43:14;4.90;99.90
15262;DHT22;7733;51.554;13.590;2023-02-01T03:45:49;4.90;99.90
15262;DHT22;7733;51.554;13.590;2023-02-01T03:48:23;4.90;99.90
15262;DHT22;7733;51.554;13.590;2023-02-01T03:50:54;4.90;99.90
15262;DHT22;7733;51.554;13.590;2023-02-01T03:53:25;4.90;99.90
15262;DHT22;7733;51.554;13.590;2023-02-01T03:55:53;4.90;99.90
15262;DHT22;7733;51.554;13.590;2023-02-01T03:58:21;5.00;99.90
15262;DHT22;7733;51.554;13.590;2023-02-01T04:00:58;5.00;99.90
15262;DHT22;7733;51.554;13.590;2023-02-01T04:03:26;5.00;99.90
15262;DHT22;7733;51.554;13.590;2023-02-01T04:05:54;5.00;99.90
15262;DHT22;7733;51.554;13.590;2023-02-01T04:08:20;5.00;99.90
15262;DHT22;7733;51.554;13.590;2023-02-01T04:10:46;5.00;99.90
15262;DHT22;7733;51.554;13.590;2023-02-01T04:13:12;5.00;99.90
15262;DHT22;7733;51.554;13.590;2023-02-01T04:15:38;5.10;99.90
15262;DHT22;7733;51.554;13.590;2023-02-01T04:18:05;5.10;99.90
15262;DHT22;7733;51.554;13.590;2023-02-01T04:20:30;5.10;99.90
15262;DHT22;7733;51.554;13.590;2023-02-01T04:22:56;5.10;99.90
15262;DHT22;7733;51.554;13.590;2023-02-01T04:25:22;5.10;99.90
15262;DHT22;7733;51.554;13.590;2023-02-01T04:27:48;5.10;99.90
15262;DHT22;7733;51.554;13.590;2023-02-01T04:30:14;5.10;99.90
15262;DHT22;7733;51.554;13.590;2023-02-01T04:32:40;5.20;99.90
15262;DHT22;7733;51.554;13.590;2023-02-01T04:35:07;5.20;99.90
15262;DHT22;7733;51.554;13.590;2023-02-01T04:37:33;5.20;99.90
15262;DHT22;7733;51.554;13.590;2023-02-01T04:39:59;5.20;99.90
15262;DHT22;7733;51.554;13.590;2023-02-01T04:42:25;5.20;99.90
15262;DHT22;7733;51.554;13.590;2023-02-01T04:44:51;5.30;99.90
15262;DHT22;7733;51.554;13.590;2023-02-01T04:47:16;5.30;99.90
15262;DHT22;7733;51.554;13.590;2023-02-01T04:49:42;5.30;99.90
15262;DHT22;7733;51.554;13.590;2023-02-01T04:52:08;5.30;99.90
15262;DHT22;7733;51.554;13.590;2023-02-01T04:54:34;5.30;99.90
15262;DHT22;7733;51.554;13.590;2023-02-01T04:57:00;5.20;99.90
15262;DHT22;7733;51.554;13.590;2023-02-01T04:59:26;5.20;99.90
15262;DHT22;7733;51.554;13.590;2023-02-01T05:01:51;5.20;99.90
15262;DHT22;7733;51.554;13.590;2023-02-01T05:04:17;5.20;99.90
15262;DHT22;7733;51.554;13.590;2023-02-01T05:06:44;5.20;99.90
15262;DHT22;7733;51.554;13.590;2023-02-01T05:09:10;5.30;99.90
15262;DHT22;7733;51.554;13.590;2023-02-01T05:11:36;5.30;99.90
15262;DHT22;7733;51.554;13.590;2023-02-01T05:14:21;5.20;99.90
15262;DHT22;7733;51.554;13.590;2023-02-01T05:16:47;5.20;99.90
15262;DHT22;7733;51.554;13.590;2023-02-01T05:19:12;5.30;99.90
15262;DHT22;7733;51.554;13.590;2023-02-01T05:21:38;5.30;99.90
15262;DHT22;7733;51.554;13.590;2023-02-01T05:24:04;5.30;99.90
15262;DHT22;7733;51.554;13.590;2023-02-01T05:26:39;5.30;99.90
15262;DHT22;7733;51.554;13.590;2023-02-01T05:29:06;5.30;99.90
15262;DHT22;7733;51.554;13.590;2023-02-01T05:31:33;5.30;99.90
15262;DHT22;7733;51.554;13.590;2023-02-01T05:34:00;5.30;99.90
15262;DHT22;7733;51.554;13.590;2023-02-01T05:36:25;5.30;99.90
15262;DHT22;7733;51.554;13.590;2023-02-01T05:38:51;5.30;99.90
15262;DHT22;7733;51.554;13.590;2023-02-01T05:41:17;5.20;99.90
15262;DHT22;7733;51.554;13.590;2023-02-01T05:43:43;5.30;99.90
15262;DHT22;7733;51.554;13.590;2023-02-01T05:46:08;5.30;99.90
15262;DHT22;7733;51.554;13.590;2023-02-01T05:48:38;5.30;99.90
15262;DHT22;7733;51.554;13.590;2023-02-01T05:51:08;5.30;99.90
15262;DHT22;7733;51.554;13.590;2023-02-01T05:53:35;5.30;99.90
15262;DHT22;7733;51.554;13.590;2023-02-01T05:56:01;5.30;99.90
15262;DHT22;7733;51.554;13.590;2023-02-01T05:58:27;5.30;99.90
15262;DHT22;7733;51.554;13.590;2023-02-01T06:00:53;5.20;99.90
15262;DHT22;7733;51.554;13.590;2023-02-01T06:03:19;5.20;99.90
15262;DHT22;7733;51.554;13.590;2023-02-01T06:05:46;5.20;99.90
15262;DHT22;7733;51.554;13.590;2023-02-01T06:08:13;5.20;99.90
15262;DHT22;7733;51.554;13.590;2023-02-01T06:10:39;5.20;99.90
15262;DHT22;7733;51.554;13.590;2023-02-01T06:13:05;5.20;99.90
15262;DHT22;7733;51.554;13.590;2023-02-01T06:15:31;5.10;99.90
15262;DHT22;7733;51.554;13.590;2023-02-01T06:17:57;5.10;99.90
15262;DHT22;7733;51.554;13.590;2023-02-01T06:20:23;5.10;99.90
15262;DHT22;7733;51.554;13.590;2023-02-01T06:22:49;5.10;99.90
15262;DHT22;7733;51.554;13.590;2023-02-01T06:25:15;5.10;99.90
15262;DHT22;7733;51.554;13.590;2023-02-01T06:27:42;5.10;99.90
15262;DHT22;7733;51.554;13.590;2023-02-01T06:30:11;5.10;99.90
15262;DHT22;7733;51.554;13.590;2023-02-01T06:32:39;5.00;99.90
15262;DHT22;7733;51.554;13.590;2023-02-01T06:35:07;5.10;99.90
15262;DHT22;7733;51.554;13.590;2023-02-01T06:37:36;5.10;99.90
15262;DHT22;7733;51.554;13.590;2023-02-01T06:40:03;5.10;99.90
15262;DHT22;7733;51.554;13.590;2023-02-01T06:42:29;5.10;99.90
15262;DHT22;7733;51.554;13.590;2023-02-01T06:44:55;5.10;99.90
15262;DHT22;7733;51.554;13.590;2023-02-01T06:47:21;5.10;99.90
15262;DHT22;7733;51.554;13.590;2023-02-01T06:49:46;5.10;99.90
15262;DHT22;7733;51.554;13.590;2023-02-01T06:52:12;5.10;99.90
15262;DHT22;7733;51.554;13.590;2023-02-01T06:54:38;5.10;99.90
15262;DHT22;7733;51.554;13.590;2023-02-01T06:57:04;5.10;99.90
15262;DHT22;7733;51.554;13.590;2023-02-01T06:59:29;5.10;99.90
15262;DHT22;7733;51.554;13.590;2023-02-01T07:01:55;5.10;99.90
15262;DHT22;7733;51.554;13.590;2023-02-01T07:04:21;5.10;99.90
15262;DHT22;7733;51.554;13.590;2023-02-01T07:06:46;5.00;99.90
15262;DHT22;7733;51.554;13.590;2023-02-01T07:09:12;5.00;99.90
15262;DHT22;7733;51.554;13.590;2023-02-01T07:11:39;4.90;99.90
15262;DHT22;7733;51.554;13.590;2023-02-01T07:14:10;4.80;99.90
15262;DHT22;7733;51.554;13.590;2023-02-01T07:16:36;4.80;99.90
15262;DHT22;7733;51.554;13.590;2023-02-01T07:19:02;4.70;99.90
15262;DHT22;7733;51.554;13.590;2023-02-01T07:21:28;4.70;99.90
15262;DHT22;7733;51.554;13.590;2023-02-01T07:23:54;4.70;99.90
15262;DHT22;7733;51.554;13.590;2023-02-01T07:26:21;4.70;99.90
15262;DHT22;7733;51.554;13.590;2023-02-01T07:28:47;4.80;99.90
15262;DHT22;7733;51.554;13.590;2023-02-01T07:31:15;4.80;99.90
15262;DHT22;7733;51.554;13.590;2023-02-01T07:33:48;4.80;99.90
15262;DHT22;7733;51.554;13.590;2023-02-01T07:36:17;4.80;99.90
15262;DHT22;7733;51.554;13.590;2023-02-01T07:38:44;4.90;99.90
15262;DHT22;7733;51.554;13.590;2023-02-01T07:41:10;4.90;99.90
15262;DHT22;7733;51.554;13.590;2023-02-01T07:43:36;4.90;99.90
15262;DHT22;7733;51.554;13.590;2023-02-01T07:46:04;4.90;99.90
15262;DHT22;7733;51.554;13.590;2023-02-01T07:48:31;4.90;99.90
15262;DHT22;7733;51.554;13.590;2023-02-01T07:53:34;4.90;99.90
15262;DHT22;7733;51.554;13.590;2023-02-01T07:56:00;4.90;99.90
15262;DHT22;7733;51.554;13.590;2023-02-01T07:58:28;4.90;99.90
15262;DHT22;7733;51.554;13.590;2023-02-01T08:00:54;4.90;99.90
15262;DHT22;7733;51.554;13.590;2023-02-01T08:03:39;4.90;99.90
15262;DHT22;7733;51.554;13.590;2023-02-01T08:06:06;5.00;99.90
15262;DHT22;7733;51.554;13.590;2023-02-01T08:08:32;5.00;99.90
15262;DHT22;7733;51.554;13.590;2023-02-01T08:11:03;5.00;99.90
15262;DHT22;7733;51.554;13.590;2023-02-01T08:13:31;5.00;99.90
15262;DHT22;7733;51.554;13.590;2023-02-01T08:16:04;5.00;99.90
15262;DHT22;7733;51.554;13.590;2023-02-01T08:18:32;5.00;99.90
15262;DHT22;7733;51.554;13.590;2023-02-01T08:21:07;4.90;99.90
15262;DHT22;7733;51.554;13.590;2023-02-01T08:23:35;4.90;99.90
15262;DHT22;7733;51.554;13.590;2023-02-01T08:26:16;4.90;99.90
15262;DHT22;7733;51.554;13.590;2023-02-01T08:28:46;5.00;99.90
15262;DHT22;7733;51.554;13.590;2023-02-01T08:31:16;5.00;99.90
15262;DHT22;7733;51.554;13.590;2023-02-01T08:33:48;5.10;99.90
15262;DHT22;7733;51.554;13.590;2023-02-01T08:36:16;5.10;99.90
15262;DHT22;7733;51.554;13.590;2023-02-01T08:38:42;5.10;99.90
15262;DHT22;7733;51.554;13.590;2023-02-01T08:41:14;5.20;99.90
15262;DHT22;7733;51.554;13.590;2023-02-01T08:43:42;5.20;99.90
15262;DHT22;7733;51.554;13.590;2023-02-01T08:46:08;5.20;99.90
15262;DHT22;7733;51.554;13.590;2023-02-01T08:48:35;5.20;99.90
15262;DHT22;7733;51.554;13.590;2023-02-01T08:51:06;5.20;99.90
15262;DHT22;7733;51.554;13.590;2023-02-01T08:53:37;5.30;99.90
15262;DHT22;7733;51.554;13.590;2023-02-01T08:56:04;5.20;99.90
15262;DHT22;7733;51.554;13.590;2023-02-01T08:58:30;5.30;99.90
15262;DHT22;7733;51.554;13.590;2023-02-01T09:00:56;5.20;99.90
15262;DHT22;7733;51.554;13.590;2023-02-01T09:03:22;5.20;99.90
15262;DHT22;7733;51.554;13.590;2023-02-01T09:05:47;5.20;99.90
15262;DHT22;7733;51.554;13.590;2023-02-01T09:08:13;5.20;99.90
15262;DHT22;7733;51.554;13.590;2023-02-01T09:10:41;5.20;99.90
15262;DHT22;7733;51.554;13.590;2023-02-01T09:13:07;5.20;99.90
15262;DHT22;7733;51.554;13.590;2023-02-01T09:15:34;5.10;99.90
15262;DHT22;7733;51.554;13.590;2023-02-01T09:18:00;5.10;99.90
15262;DHT22;7733;51.554;13.590;2023-02-01T09:20:26;5.10;99.90
15262;DHT22;7733;51.554;13.590;2023-02-01T09:22:52;5.00;99.90
15262;DHT22;7733;51.554;13.590;2023-02-01T09:25:19;4.90;99.90
15262;DHT22;7733;51.554;13.590;2023-02-01T09:27:45;4.90;99.90
15262;DHT22;7733;51.554;13.590;2023-02-01T09:30:11;4.80;99.90
15262;DHT22;7733;51.554;13.590;2023-02-01T09:32:37;4.80;99.90
15262;DHT22;7733;51.554;13.590;2023-02-01T09:35:03;4.70;99.90
15262;DHT22;7733;51.554;13.590;2023-02-01T09:37:29;4.70;99.90
15262;DHT22;7733;51.554;13.590;2023-02-01T09:39:55;4.60;99.90
15262;DHT22;7733;51.554;13.590;2023-02-01T09:48:21;4.50;99.90
15262;DHT22;7733;51.554;13.590;2023-02-01T09:50:56;4.50;99.90
15262;DHT22;7733;51.554;13.590;2023-02-01T09:53:36;4.50;99.90
15262;DHT22;7733;51.554;13.590;2023-02-01T09:56:20;4.50;99.90
15262;DHT22;7733;51.554;13.590;2023-02-01T09:58:56;4.50;99.90
15262;DHT22;7733;51.554;13.590;2023-02-01T10:01:32;4.50;99.90
15262;DHT22;7733;51.554;13.590;2023-02-01T10:04:02;4.50;99.90
15262;DHT22;7733;51.554;13.590;2023-02-01T10:09:16;4.50;99.90
15262;DHT22;7733;51.554;13.590;2023-02-01T10:23:35;4.40;99.90
15262;DHT22;7733;51.554;13.590;2023-02-01T10:26:33;4.40;99.90
15262;DHT22;7733;51.554;13.590;2023-02-01T10:29:16;4.40;99.90
15262;DHT22;7733;51.554;13.590;2023-02-01T10:31:45;4.40;99.90
15262;DHT22;7733;51.554;13.590;2023-02-01T10:34:27;4.50;99.90
15262;DHT22;7733;51.554;13.590;2023-02-01T10:37:07;4.50;99.90
15262;DHT22;7733;51.554;13.590;2023-02-01T10:39:33;4.60;99.90
15262;DHT22;7733;51.554;13.590;2023-02-01T10:41:59;4.60;99.90
15262;DHT22;7733;51.554;13.590;2023-02-01T10:44:27;4.70;99.90
15262;DHT22;7733;51.554;13.590;2023-02-01T10:46:55;4.70;99.90
15262;DHT22;7733;51.554;13.590;2023-02-01T10:49:34;4.70;99.90
15262;DHT22;7733;51.554;13.590;2023-02-01T10:55:32;4.80;99.90
15262;DHT22;7733;51.554;13.590;2023-02-01T10:58:25;4.80;99.90
15262;DHT22;7733;51.554;13.590;2023-02-01T11:01:26;4.80;99.90
15262;DHT22;7733;51.554;13.590;2023-02-01T11:04:00;4.90;99.90
15262;DHT22;7733;51.554;13.590;2023-02-01T11:06:31;4.80;99.90
15262;DHT22;7733;51.554;13.590;2023-02-01T11:14:20;4.90;99.90
15262;DHT22;7733;51.554;13.590;2023-02-01T11:17:24;4.90;99.90
15262;DHT22;7733;51.554;13.590;2023-02-01T11:19:59;5.10;99.90
15262;DHT22;7733;51.554;13.590;2023-02-01T11:22:28;5.20;99.90
15262;DHT22;7733;51.554;13.590;2023-02-01T11:24:55;5.20;99.90
15262;DHT22;7733;51.554;13.590;2023-02-01T11:27:24;5.30;99.90
15262;DHT22;7733;51.554;13.590;2023-02-01T11:29:53;5.20;99.90
15262;DHT22;7733;51.554;13.590;2023-02-01T11:32:24;5.30;99.90
15262;DHT22;7733;51.554;13.590;2023-02-01T11:34:57;5.30;99.90
15262;DHT22;7733;51.554;13.590;2023-02-01T11:37:40;5.40;99.90
15262;DHT22;7733;51.554;13.590;2023-02-01T11:40:37;5.40;99.90
15262;DHT22;7733;51.554;13.590;2023-02-01T11:43:23;5.40;99.90
15262;DHT22;7733;51.554;13.590;2023-02-01T11:46:17;5.40;99.90
15262;DHT22;7733;51.554;13.590;2023-02-01T11:48:51;5.30;99.90
15262;DHT22;7733;51.554;13.590;2023-02-01T11:51:37;5.30;99.90
15262;DHT22;7733;51.554;13.590;2023-02-01T12:05:47;5.10;99.90
15262;DHT22;7733;51.554;13.590;2023-02-01T12:20:48;5.00;99.90
15262;DHT22;7733;51.554;13.590;2023-02-01T12:29:30;4.90;99.90
15262;DHT22;7733;51.554;13.590;2023-02-01T12:32:07;4.90;99.90
15262;DHT22;7733;51.554;13.590;2023-02-01T12:35:13;5.00;99.90
15262;DHT22;7733;51.554;13.590;2023-02-01T12:43:59;5.10;99.90
15262;DHT22;7733;51.554;13.590;2023-02-01T12:49:11;5.10;99.90
15262;DHT22;7733;51.554;13.590;2023-02-01T12:51:46;5.10;99.90
15262;DHT22;7733;51.554;13.590;2023-02-01T12:54:22;5.20;99.90
15262;DHT22;7733;51.554;13.590;2023-02-01T12:57:17;5.20;99.90
15262;DHT22;7733;51.554;13.590;2023-02-01T13:03:17;5.30;99.90
15262;DHT22;7733;51.554;13.590;2023-02-01T13:08:44;5.30;99.90
15262;DHT22;7733;51.554;13.590;2023-02-01T13:11:28;5.30;99.90
15262;DHT22;7733;51.554;13.590;2023-02-01T13:16:34;5.50;99.90
15262;DHT22;7733;51.554;13.590;2023-02-01T13:19:20;5.50;99.90
15262;DHT22;7733;51.554;13.590;2023-02-01T13:21:56;5.60;99.90
15262;DHT22;7733;51.554;13.590;2023-02-01T13:25:15;5.70;99.90
15262;DHT22;7733;51.554;13.590;2023-02-01T13:27:43;5.80;99.90
15262;DHT22;7733;51.554;13.590;2023-02-01T13:30:20;5.80;99.90
15262;DHT22;7733;51.554;13.590;2023-02-01T13:38:44;5.90;99.90
15262;DHT22;7733;51.554;13.590;2023-02-01T13:41:42;5.90;99.90
15262;DHT22;7733;51.554;13.590;2023-02-01T13:47:01;6.00;99.90
15262;DHT22;7733;51.554;13.590;2023-02-01T13:49:32;6.10;99.90
15262;DHT22;7733;51.554;13.590;2023-02-01T13:52:04;6.10;99.90
15262;DHT22;7733;51.554;13.590;2023-02-01T13:54:32;6.30;99.90
15262;DHT22;7733;51.554;13.590;2023-02-01T13:57:04;6.40;99.90
15262;DHT22;7733;51.554;13.590;2023-02-01T14:03:06;6.40;99.90
15262;DHT22;7733;51.554;13.590;2023-02-01T14:10:49;6.40;99.90
15262;DHT22;7733;51.554;13.590;2023-02-01T14:13:37;6.50;99.90
15262;DHT22;7733;51.554;13.590;2023-02-01T14:26:25;6.60;99.90
15262;DHT22;7733;51.554;13.590;2023-02-01T14:34:39;6.60;99.90
15262;DHT22;7733;51.554;13.590;2023-02-01T14:42:32;6.60;99.90
15262;DHT22;7733;51.554;13.590;2023-02-01T14:50:24;6.50;99.90
15262;DHT22;7733;51.554;13.590;2023-02-01T14:53:01;6.50;99.90
15262;DHT22;7733;51.554;13.590;2023-02-01T14:55:54;6.40;99.90
15262;DHT22;7733;51.554;13.590;2023-02-01T14:58:55;6.40;99.90
15262;DHT22;7733;51.554;13.590;2023-02-01T15:01:33;6.40;99.90
15262;DHT22;7733;51.554;13.590;2023-02-01T15:04:10;6.40;99.90
15262;DHT22;7733;51.554;13.590;2023-02-01T15:06:47;6.20;99.90
15262;DHT22;7733;51.554;13.590;2023-02-01T15:09:20;6.10;99.90
15262;DHT22;7733;51.554;13.590;2023-02-01T15:17:57;6.00;99.90
15262;DHT22;7733;51.554;13.590;2023-02-01T15:20:30;6.00;99.90
15262;DHT22;7733;51.554;13.590;2023-02-01T15:22:58;5.90;99.90
15262;DHT22;7733;51.554;13.590;2023-02-01T15:25:26;5.90;99.90
15262;DHT22;7733;51.554;13.590;2023-02-01T15:27:54;5.90;99.90
15262;DHT22;7733;51.554;13.590;2023-02-01T15:30:24;5.80;99.90
15262;DHT22;7733;51.554;13.590;2023-02-01T15:33:13;5.80;99.90
15262;DHT22;7733;51.554;13.590;2023-02-01T15:46:40;5.60;99.90
15262;DHT22;7733;51.554;13.590;2023-02-01T15:49:30;5.60;99.90
15262;DHT22;7733;51.554;13.590;2023-02-01T15:52:02;5.60;99.90
15262;DHT22;7733;51.554;13.590;2023-02-01T15:57:09;5.60;99.90
15262;DHT22;7733;51.554;13.590;2023-02-01T15:59:43;5.60;99.90
15262;DHT22;7733;51.554;13.590;2023-02-01T16:02:51;5.60;99.90
15262;DHT22;7733;51.554;13.590;2023-02-01T16:05:40;5.60;99.90
15262;DHT22;7733;51.554;13.590;2023-02-01T16:08:23;5.50;99.90
15262;DHT22;7733;51.554;13.590;2023-02-01T16:10:59;5.40;99.90
15262;DHT22;7733;51.554;13.590;2023-02-01T16:13:45;5.30;99.90
15262;DHT22;7733;51.554;13.590;2023-02-01T16:16:11;5.20;99.90
15262;DHT22;7733;51.554;13.590;2023-02-01T16:18:42;5.10;99.90
15262;DHT22;7733;51.554;13.590;2023-02-01T16:21:09;5.00;99.90
15262;DHT22;7733;51.554;13.590;2023-02-01T16:23:35;5.00;99.90
15262;DHT22;7733;51.554;13.590;2023-02-01T16:26:03;5.00;99.90
15262;DHT22;7733;51.554;13.590;2023-02-01T16:28:29;4.90;99.90
15262;DHT22;7733;51.554;13.590;2023-02-01T16:30:55;4.80;99.90
15262;DHT22;7733;51.554;13.590;2023-02-01T16:33:22;4.80;99.90
15262;DHT22;7733;51.554;13.590;2023-02-01T16:35:49;4.80;99.90
15262;DHT22;7733;51.554;13.590;2023-02-01T16:38:17;4.70;99.90
15262;DHT22;7733;51.554;13.590;2023-02-01T16:40:47;4.70;99.90
15262;DHT22;7733;51.554;13.590;2023-02-01T16:45:45;4.70;99.90
15262;DHT22;7733;51.554;13.590;2023-02-01T16:48:23;4.70;99.90
15262;DHT22;7733;51.554;13.590;2023-02-01T16:50:59;4.70;99.90
15262;DHT22;7733;51.554;13.590;2023-02-01T16:53:29;4.70;99.90
15262;DHT22;7733;51.554;13.590;2023-02-01T16:55:56;4.70;99.90
15262;DHT22;7733;51.554;13.590;2023-02-01T16:58:23;4.70;99.90
15262;DHT22;7733;51.554;13.590;2023-02-01T17:00:50;4.60;99.90
15262;DHT22;7733;51.554;13.590;2023-02-01T17:03:18;4.60;99.90
15262;DHT22;7733;51.554;13.590;2023-02-01T17:05:47;4.60;99.90
15262;DHT22;7733;51.554;13.590;2023-02-01T17:08:22;4.60;99.90
15262;DHT22;7733;51.554;13.590;2023-02-01T17:10:54;4.60;99.90
15262;DHT22;7733;51.554;13.590;2023-02-01T17:13:19;4.60;99.90
15262;DHT22;7733;51.554;13.590;2023-02-01T17:16:01;4.50;99.90
15262;DHT22;7733;51.554;13.590;2023-02-01T17:18:32;4.60;99.90
15262;DHT22;7733;51.554;13.590;2023-02-01T17:21:01;4.60;99.90
15262;DHT22;7733;51.554;13.590;2023-02-01T17:23:29;4.60;99.90
15262;DHT22;7733;51.554;13.590;2023-02-01T17:25:56;4.60;99.90
15262;DHT22;7733;51.554;13.590;2023-02-01T17:28:23;4.60;99.90
15262;DHT22;7733;51.554;13.590;2023-02-01T17:30:49;4.60;99.90
15262;DHT22;7733;51.554;13.590;2023-02-01T17:35:53;4.50;99.90
15262;DHT22;7733;51.554;13.590;2023-02-01T17:38:21;4.50;99.90
15262;DHT22;7733;51.554;13.590;2023-02-01T17:40:48;4.50;99.90
15262;DHT22;7733;51.554;13.590;2023-02-01T17:43:15;4.40;99.90
15262;DHT22;7733;51.554;13.590;2023-02-01T17:46:14;4.30;99.90
15262;DHT22;7733;51.554;13.590;2023-02-01T17:48:43;4.30;99.90
15262;DHT22;7733;51.554;13.590;2023-02-01T17:51:28;4.30;99.90
15262;DHT22;7733;51.554;13.590;2023-02-01T17:53:55;4.20;99.90
15262;DHT22;7733;51.554;13.590;2023-02-01T17:56:22;4.20;99.90
15262;DHT22;7733;51.554;13.590;2023-02-01T17:58:49;4.20;99.90
15262;DHT22;7733;51.554;13.590;2023-02-01T18:01:21;4.20;99.90
15262;DHT22;7733;51.554;13.590;2023-02-01T18:03:49;4.10;99.90
15262;DHT22;7733;51.554;13.590;2023-02-01T18:06:18;4.10;99.90
15262;DHT22;7733;51.554;13.590;2023-02-01T18:08:45;4.10;99.90
15262;DHT22;7733;51.554;13.590;2023-02-01T18:11:20;4.00;99.90
15262;DHT22;7733;51.554;13.590;2023-02-01T18:13:48;4.00;99.90
15262;DHT22;7733;51.554;13.590;2023-02-01T18:16:21;4.00;99.90
15262;DHT22;7733;51.554;13.590;2023-02-01T18:18:50;4.00;99.90
15262;DHT22;7733;51.554;13.590;2023-02-01T18:21:18;4.00;99.90
15262;DHT22;7733;51.554;13.590;2023-02-01T18:23:46;4.00;99.90
15262;DHT22;7733;51.554;13.590;2023-02-01T18:26:15;4.00;99.90
15262;DHT22;7733;51.554;13.590;2023-02-01T18:28:42;4.00;99.90
15262;DHT22;7733;51.554;13.590;2023-02-01T18:31:23;4.00;99.90
15262;DHT22;7733;51.554;13.590;2023-02-01T18:33:52;4.00;99.90
15262;DHT22;7733;51.554;13.590;2023-02-01T18:36:19;4.00;99.90
15262;DHT22;7733;51.554;13.590;2023-02-01T18:38:46;4.00;99.90
15262;DHT22;7733;51.554;13.590;2023-02-01T18:41:21;4.00;99.90
15262;DHT22;7733;51.554;13.590;2023-02-01T18:43:48;4.00;99.90
15262;DHT22;7733;51.554;13.590;2023-02-01T18:46:16;4.10;99.90
15262;DHT22;7733;51.554;13.590;2023-02-01T18:48:43;4.10;99.90
15262;DHT22;7733;51.554;13.590;2023-02-01T18:51:10;4.20;99.90
15262;DHT22;7733;51.554;13.590;2023-02-01T18:53:38;4.20;99.90
15262;DHT22;7733;51.554;13.590;2023-02-01T18:56:05;4.30;99.90
15262;DHT22;7733;51.554;13.590;2023-02-01T18:58:31;4.30;99.90
15262;DHT22;7733;51.554;13.590;2023-02-01T19:00:59;4.30;99.90